createdAt,value
2022-10-05T00:01:34.538Z,99163.28
2022-10-05T00:04:28.965Z,99158.84
2022-10-05T00:07:18.523Z,99170.31
2022-10-05T00:09:57.906Z,99168.88
2022-10-05T00:12:29.676Z,99163.84
2022-10-05T00:15:01.116Z,99167.69
2022-10-05T00:17:30.733Z,99159.50
2022-10-05T00:19:58.009Z,99165.34
2022-10-05T00:22:33.269Z,99152.69
2022-10-05T00:25:11.143Z,99161.56
2022-10-05T00:27:39.749Z,99166.97
2022-10-05T00:30:17.699Z,99171.75
2022-10-05T00:32:46.355Z,99163.63
2022-10-05T00:35:16.623Z,99167.25
2022-10-05T00:37:46.628Z,99160.19
2022-10-05T00:41:08.882Z,99159.25
2022-10-05T00:44:59.956Z,99166.72
2022-10-05T00:48:27.172Z,99156.38
2022-10-05T00:51:24.116Z,99165.81
2022-10-05T00:54:36.676Z,99163.34
2022-10-05T00:57:44.480Z,99165.09
2022-10-05T01:00:20.204Z,99160.44
2022-10-05T01:03:25.905Z,99166.28
2022-10-05T01:06:34.104Z,99165.28
2022-10-05T01:09:33.239Z,99148.50
2022-10-05T01:12:45.582Z,99153.09
2022-10-05T01:15:39.700Z,99162.28
2022-10-05T01:18:59.035Z,99160.03
2022-10-05T01:21:36.853Z,99150.94
2022-10-05T01:24:49.863Z,99151.06
2022-10-05T01:28:04.746Z,99152.16
2022-10-05T01:30:56.867Z,99143.03
2022-10-05T01:33:50.297Z,99143.00
2022-10-05T01:36:51.484Z,99147.53
2022-10-05T01:39:49.106Z,99138.72
2022-10-05T01:42:56.006Z,99142.59
2022-10-05T01:46:15.412Z,99141.66
2022-10-05T01:49:50.184Z,99146.59
2022-10-05T01:52:52.210Z,99137.84
2022-10-05T01:56:22.560Z,99146.00
2022-10-05T01:59:46.920Z,99139.19
2022-10-05T02:02:21.018Z,99126.56
2022-10-05T02:05:08.237Z,99131.13
2022-10-05T02:07:51.117Z,99130.19
2022-10-05T02:10:36.280Z,99128.97
2022-10-05T02:13:38.894Z,99126.66
2022-10-05T02:16:45.063Z,99127.22
2022-10-05T02:19:44.641Z,99128.41
2022-10-05T02:22:38.082Z,99127.94
2022-10-05T02:25:33.132Z,99129.97
2022-10-05T02:29:00.344Z,99129.28
2022-10-05T02:31:57.560Z,99126.47
2022-10-05T02:34:38.412Z,99124.19
2022-10-05T02:37:57.124Z,99119.69
2022-10-05T02:41:20.055Z,99114.63
2022-10-05T02:44:41.688Z,99107.28
2022-10-05T02:47:54.996Z,99115.63
2022-10-05T02:50:39.084Z,99121.50
2022-10-05T02:54:04.631Z,99123.94
2022-10-05T02:57:16.301Z,99120.44
2022-10-05T03:00:15.024Z,99134.63
2022-10-05T03:03:25.442Z,99131.97
2022-10-05T03:06:04.571Z,99125.56
2022-10-05T03:08:55.458Z,99131.81
2022-10-05T03:12:22.994Z,99124.75
2022-10-05T03:15:45.028Z,99119.88
2022-10-05T03:19:31.371Z,99113.53
2022-10-05T03:23:02.151Z,99127.31
2022-10-05T03:25:41.288Z,99118.38
2022-10-05T03:28:54.908Z,99121.59
2022-10-05T03:31:59.678Z,99123.16
2022-10-05T03:35:00.311Z,99125.09
2022-10-05T03:37:39.508Z,99133.97
2022-10-05T03:40:39.800Z,99117.63
2022-10-05T03:44:16.713Z,99123.66
2022-10-05T03:47:38.004Z,99134.44
2022-10-05T03:51:12.944Z,99130.25
2022-10-05T03:53:56.624Z,99126.78
2022-10-05T03:56:53.424Z,99133.28
2022-10-05T03:59:40.471Z,99131.59
2022-10-05T04:02:31.098Z,99132.56
2022-10-05T04:05:18.089Z,99148.59
2022-10-05T04:08:07.661Z,99142.44
2022-10-05T04:10:55.415Z,99143.34
2022-10-05T04:13:51.973Z,99131.75
2022-10-05T04:16:34.594Z,99140.91
2022-10-05T04:19:19.591Z,99135.75
2022-10-05T04:22:17.134Z,99146.03
2022-10-05T04:25:24.968Z,99135.78
2022-10-05T04:28:31.967Z,99133.47
2022-10-05T04:31:04.111Z,99136.06
2022-10-05T04:33:33.341Z,99137.22
2022-10-05T04:36:30.046Z,99131.66
2022-10-05T04:39:48.001Z,99132.66
2022-10-05T04:42:45.737Z,99136.69
2022-10-05T04:46:08.979Z,99135.06
2022-10-05T04:49:29.939Z,99128.13
2022-10-05T04:52:37.949Z,99132.31
2022-10-05T04:55:45.936Z,99122.75
2022-10-05T04:59:05.196Z,99130.16
2022-10-05T05:02:53.315Z,99127.19
2022-10-05T05:06:28.192Z,99136.38
2022-10-05T05:09:59.563Z,99137.03
2022-10-05T05:13:50.523Z,99133.53
2022-10-05T05:16:43.650Z,99128.66
2022-10-05T05:20:16.805Z,99131.03
2022-10-05T05:23:23.816Z,99131.16
2022-10-05T05:26:14.626Z,99127.75
2022-10-05T05:29:44.849Z,99125.25
2022-10-05T05:33:12.742Z,99133.81
2022-10-05T05:35:52.798Z,99127.31
2022-10-05T05:38:44.726Z,99125.06
2022-10-05T05:41:44.231Z,99126.78
2022-10-05T05:44:38.603Z,99136.75
2022-10-05T05:47:30.757Z,99128.19
2022-10-05T05:50:51.494Z,99139.72
2022-10-05T05:53:57.696Z,99144.88
2022-10-05T05:56:40.389Z,99139.59
2022-10-05T05:59:32.519Z,99148.28
2022-10-05T06:02:27.310Z,99152.28
2022-10-05T06:05:32.068Z,99154.47
2022-10-05T06:08:20.445Z,99152.06
2022-10-05T06:11:00.515Z,99156.72
2022-10-05T06:13:40.463Z,99159.13
2022-10-05T06:16:51.857Z,99158.56
2022-10-05T06:19:24.544Z,99164.03
2022-10-05T06:22:32.673Z,99156.34
2022-10-05T06:25:11.768Z,99153.88
2022-10-05T06:28:00.234Z,99162.16
2022-10-05T06:31:02.981Z,99173.84
2022-10-05T06:34:01.695Z,99172.31
2022-10-05T06:36:50.944Z,99176.81
2022-10-05T06:39:54.591Z,99172.03
2022-10-05T06:42:59.864Z,99182.41
2022-10-05T06:46:16.151Z,99185.09
2022-10-05T06:49:23.358Z,99190.69
2022-10-05T06:52:14.810Z,99178.22
2022-10-05T06:55:13.909Z,99189.63
2022-10-05T06:58:30.889Z,99198.72
2022-10-05T07:01:38.855Z,99181.44
2022-10-05T07:04:42.457Z,99199.84
2022-10-05T07:07:32.506Z,99184.88
2022-10-05T07:10:54.893Z,99196.47
2022-10-05T07:14:14.061Z,99193.22
2022-10-05T07:17:29.247Z,99205.31
2022-10-05T07:20:55.318Z,99194.25
2022-10-05T07:23:58.237Z,99191.50
2022-10-05T07:27:13.559Z,99210.25
2022-10-05T07:30:12.878Z,99199.25
2022-10-05T07:33:20.841Z,99197.28
2022-10-05T07:37:08.581Z,99197.13
2022-10-05T07:40:30.735Z,99195.31
2022-10-05T07:44:01.104Z,99198.41
2022-10-05T07:47:26.119Z,99204.53
2022-10-05T07:50:43.840Z,99208.59
2022-10-05T07:53:45.176Z,99204.97
2022-10-05T07:56:49.409Z,99206.13
2022-10-05T08:00:19.033Z,99208.75
2022-10-05T08:03:34.362Z,99203.09
2022-10-05T08:06:03.789Z,99207.63
2022-10-05T08:09:26.144Z,99205.78
2022-10-05T08:12:31.129Z,99203.19
2022-10-05T08:15:45.926Z,99196.16
2022-10-05T08:18:54.313Z,99201.09
2022-10-05T08:22:04.229Z,99202.94
2022-10-05T08:25:01.912Z,99204.03
2022-10-05T08:28:23.067Z,99211.13
2022-10-05T08:31:33.649Z,99210.91
2022-10-05T08:34:39.536Z,99204.91
2022-10-05T08:37:35.294Z,99204.69
2022-10-05T08:41:27.385Z,99211.81
2022-10-05T08:44:41.384Z,99195.94
2022-10-05T08:48:04.680Z,99197.97
2022-10-05T08:50:50.035Z,99198.66
2022-10-05T08:53:59.281Z,99204.66
2022-10-05T08:57:31.428Z,99195.19
2022-10-05T09:00:24.846Z,99189.81
2022-10-05T09:03:50.480Z,99205.91
2022-10-05T09:07:13.324Z,99201.44
2022-10-05T09:10:13.627Z,99198.31
2022-10-05T09:13:48.203Z,99193.63
2022-10-05T09:17:19.654Z,99191.25
2022-10-05T09:20:30.845Z,99190.81
2022-10-05T09:23:26.304Z,99201.31
2022-10-05T09:26:46.608Z,99196.06
2022-10-05T09:30:10.622Z,99186.22
2022-10-05T09:32:58.199Z,99189.06
2022-10-05T09:36:18.772Z,99186.22
2022-10-05T09:39:42.323Z,99187.91
2022-10-05T09:42:40.027Z,99187.19
2022-10-05T09:46:05.264Z,99185.72
2022-10-05T09:49:31.393Z,99176.16
2022-10-05T09:53:27.540Z,99184.94
2022-10-05T09:56:52.389Z,99176.94
2022-10-05T10:00:34.368Z,99185.69
2022-10-05T10:04:17.956Z,99181.19
2022-10-05T10:07:20.554Z,99173.44
2022-10-05T10:10:41.877Z,99173.75
2022-10-05T10:14:01.347Z,99171.25
2022-10-05T10:17:27.752Z,99168.22
2022-10-05T10:21:07.725Z,99164.59
2022-10-05T10:24:24.052Z,99160.00
2022-10-05T10:27:42.030Z,99155.03
2022-10-05T10:30:56.406Z,99159.44
2022-10-05T10:34:03.733Z,99165.63
2022-10-05T10:37:00.941Z,99156.09
2022-10-05T10:40:26.909Z,99164.91
2022-10-05T10:43:43.716Z,99154.91
2022-10-05T10:47:13.869Z,99156.78
2022-10-05T10:50:28.278Z,99153.72
2022-10-05T10:53:57.524Z,99147.22
2022-10-05T10:57:10.984Z,99144.09
2022-10-05T11:00:20.866Z,99145.03
2022-10-05T11:03:43.536Z,99149.59
2022-10-05T11:06:50.072Z,99135.88
2022-10-05T11:09:27.919Z,99137.72
2022-10-05T11:12:58.548Z,99131.97
2022-10-05T11:17:10.884Z,99125.88
2022-10-05T11:20:19.736Z,99130.31
2022-10-05T11:23:56.520Z,99127.94
2022-10-05T11:27:04.282Z,99126.44
2022-10-05T11:30:35.273Z,99116.47
2022-10-05T11:34:04.052Z,99114.44
2022-10-05T11:37:15.883Z,99112.63
2022-10-05T11:40:43.203Z,99114.41
2022-10-05T11:44:07.230Z,99112.72
2022-10-05T11:47:19.736Z,99101.47
2022-10-05T11:50:30.400Z,99100.84
2022-10-05T11:53:33.623Z,99104.47
2022-10-05T11:56:41.715Z,99109.25
2022-10-05T11:59:51.597Z,99104.91
2022-10-05T12:03:06.949Z,99098.66
2022-10-05T12:06:38.760Z,99090.97
2022-10-05T12:09:37.352Z,99089.75
2022-10-05T12:12:27.680Z,99081.72
2022-10-05T12:15:42.547Z,99069.91
2022-10-05T12:18:42.149Z,99073.75
2022-10-05T12:21:49.982Z,99073.25
2022-10-05T12:25:46.975Z,99060.19
2022-10-05T12:28:23.442Z,99060.97
2022-10-05T12:31:45.957Z,99061.03
2022-10-05T12:35:04.488Z,99065.75
2022-10-05T12:38:12.462Z,99058.63
2022-10-05T12:41:20.273Z,99062.75
2022-10-05T12:44:04.684Z,99058.72
2022-10-05T12:46:50.521Z,99053.78
2022-10-05T12:50:35.168Z,99055.44
2022-10-05T12:54:07.184Z,99049.16
2022-10-05T12:56:44.731Z,99052.66
2022-10-05T12:59:34.464Z,99046.69
2022-10-05T13:02:44.440Z,99048.91
2022-10-05T13:05:11.456Z,99042.09
2022-10-05T13:08:31.020Z,99047.66
2022-10-05T13:11:16.926Z,99049.81
2022-10-05T13:14:45.350Z,99044.06
2022-10-05T13:18:03.771Z,99044.53
2022-10-05T13:21:15.163Z,99048.03
2022-10-05T13:24:22.119Z,99042.03
2022-10-05T13:27:05.554Z,99045.75
2022-10-05T13:30:12.259Z,99038.88
2022-10-05T13:33:05.705Z,99043.06
2022-10-05T13:35:58.976Z,99035.53
2022-10-05T13:38:52.996Z,99030.03
2022-10-05T13:42:26.843Z,99036.22
2022-10-05T13:45:21.314Z,99022.94
2022-10-05T13:48:57.769Z,99030.97
2022-10-05T13:51:56.337Z,99031.66
2022-10-05T13:55:16.992Z,99031.53
2022-10-05T13:58:25.914Z,99028.78
2022-10-05T14:01:13.562Z,99031.72
2022-10-05T14:03:42.079Z,99024.97
2022-10-05T14:06:30.006Z,99019.38
2022-10-05T14:09:00.494Z,99014.34
2022-10-05T14:11:35.127Z,99015.81
2022-10-05T14:14:27.303Z,99014.72
2022-10-05T14:17:00.905Z,99021.47
2022-10-05T14:19:46.252Z,99023.19
2022-10-05T14:22:25.009Z,99013.28
2022-10-05T14:25:19.919Z,99018.88
2022-10-05T14:28:12.176Z,99016.50
2022-10-05T14:30:40.493Z,99013.63
2022-10-05T14:33:17.000Z,99015.50
2022-10-05T14:35:51.303Z,99011.19
2022-10-05T14:39:02.010Z,99007.34
2022-10-05T14:41:34.413Z,99011.84
2022-10-05T14:44:09.142Z,99004.84
2022-10-05T14:46:38.564Z,99006.31
2022-10-05T14:49:26.091Z,99007.59
2022-10-05T14:51:56.238Z,99007.19
2022-10-05T14:54:56.964Z,99000.31
2022-10-05T14:58:03.628Z,98997.81
2022-10-05T15:01:06.896Z,99005.16
2022-10-05T15:04:22.649Z,98996.78
2022-10-05T15:07:31.024Z,98995.19
2022-10-05T15:10:29.417Z,99000.31
2022-10-05T15:13:15.656Z,98993.72
2022-10-05T15:16:14.409Z,98999.53
2022-10-05T15:19:00.043Z,98996.28
2022-10-05T15:22:15.116Z,98994.97
2022-10-05T15:24:50.588Z,98993.88
2022-10-05T15:28:06.340Z,98993.09
2022-10-05T15:30:52.270Z,98987.06
2022-10-05T15:33:51.064Z,98987.53
2022-10-05T15:36:43.304Z,98985.84
2022-10-05T15:39:37.094Z,98991.06
2022-10-05T15:42:21.240Z,98990.09
2022-10-05T15:45:35.232Z,98994.34
2022-10-05T15:48:39.333Z,98997.34
2022-10-05T15:51:50.877Z,98986.69
2022-10-05T15:54:54.490Z,98991.16
2022-10-05T15:57:48.975Z,98989.31
2022-10-05T16:00:23.217Z,98991.88
2022-10-05T16:03:59.616Z,98992.84
2022-10-05T16:07:07.415Z,99004.56
2022-10-05T16:10:14.353Z,99002.78
2022-10-05T16:13:42.607Z,99002.84
2022-10-05T16:16:54.514Z,99004.28
2022-10-05T16:20:21.437Z,99015.84
2022-10-05T16:23:33.404Z,99016.25
2022-10-05T16:26:57.277Z,99020.88
2022-10-05T16:30:04.000Z,99016.81
2022-10-05T16:32:58.480Z,99018.63
2022-10-05T16:36:23.358Z,99013.97
2022-10-05T16:39:20.669Z,99024.00
2022-10-05T16:42:24.077Z,99027.84
2022-10-05T16:45:47.993Z,99040.47
2022-10-05T16:48:52.409Z,99046.59
2022-10-05T16:52:00.332Z,99042.75
2022-10-05T16:55:02.909Z,99053.66
2022-10-05T16:57:43.150Z,99056.88
2022-10-05T17:00:45.337Z,99059.88
2022-10-05T17:03:35.870Z,99060.31
2022-10-05T17:06:59.139Z,99062.75
2022-10-05T17:10:13.055Z,99070.53
2022-10-05T17:13:23.320Z,99071.16
2022-10-05T17:16:35.912Z,99076.06
2022-10-05T17:19:43.619Z,99083.09
2022-10-05T17:22:52.937Z,99079.47
2022-10-05T17:25:48.280Z,99096.28
2022-10-05T17:28:41.140Z,99101.00
2022-10-05T17:31:22.229Z,99108.59
2022-10-05T17:34:16.538Z,99113.78
2022-10-05T17:36:54.441Z,99109.78
2022-10-05T17:39:52.273Z,99107.31
2022-10-05T17:42:35.462Z,99120.09
2022-10-05T17:45:31.624Z,99125.53
2022-10-05T17:48:33.896Z,99123.59
2022-10-05T17:51:19.876Z,99119.94
2022-10-05T17:54:08.482Z,99118.91
2022-10-05T17:56:47.994Z,99124.22
2022-10-05T17:59:53.797Z,99130.59
2022-10-05T18:02:42.808Z,99125.78
2022-10-05T18:05:14.469Z,99134.31
2022-10-05T18:07:48.151Z,99131.38
2022-10-05T18:10:30.009Z,99146.78
2022-10-05T18:13:00.225Z,99151.91
2022-10-05T18:15:27.253Z,99158.38
2022-10-05T18:18:32.189Z,99166.38
2022-10-05T18:21:14.928Z,99166.88
2022-10-05T18:23:56.869Z,99166.78
2022-10-05T18:27:16.105Z,99169.94
2022-10-05T18:30:08.754Z,99172.56
2022-10-05T18:33:36.142Z,99171.47
2022-10-05T18:36:54.875Z,99170.16
2022-10-05T18:40:34.806Z,99180.56
2022-10-05T18:43:37.987Z,99192.84
2022-10-05T18:46:50.428Z,99195.94
2022-10-05T18:50:42.928Z,99197.63
2022-10-05T18:53:31.785Z,99203.97
2022-10-05T18:56:45.147Z,99209.88
2022-10-05T18:59:46.890Z,99214.22
2022-10-05T19:02:38.434Z,99218.16
2022-10-05T19:05:51.525Z,99213.00
2022-10-05T19:08:50.228Z,99227.50
2022-10-05T19:12:01.278Z,99237.16
2022-10-05T19:15:15.644Z,99240.75
2022-10-05T19:18:43.205Z,99246.84
2022-10-05T19:21:51.390Z,99249.38
2022-10-05T19:25:04.403Z,99240.59
2022-10-05T19:28:27.002Z,99251.78
2022-10-05T19:31:14.102Z,99256.97
2022-10-05T19:34:28.377Z,99264.56
2022-10-05T19:37:48.889Z,99268.22
2022-10-05T19:41:13.324Z,99270.22
2022-10-05T19:44:39.100Z,99275.81
2022-10-05T19:48:14.526Z,99277.09
2022-10-05T19:50:59.201Z,99289.44
2022-10-05T19:53:37.814Z,99289.88
2022-10-05T19:56:31.082Z,99289.84
2022-10-05T19:59:17.207Z,99298.66
2022-10-05T20:01:56.719Z,99302.66
2022-10-05T20:04:36.672Z,99307.44
2022-10-05T20:07:04.917Z,99310.63
2022-10-05T20:10:22.794Z,99315.41
2022-10-05T20:12:57.504Z,99326.22
2022-10-05T20:15:55.327Z,99329.41
2022-10-05T20:19:07.798Z,99331.41
2022-10-05T20:21:49.512Z,99334.97
2022-10-05T20:24:25.759Z,99340.50
2022-10-05T20:27:09.533Z,99336.53
2022-10-05T20:29:44.523Z,99341.34
2022-10-05T20:32:18.718Z,99351.31
2022-10-05T20:34:49.402Z,99346.50
2022-10-05T20:37:18.967Z,99352.50
2022-10-05T20:39:47.899Z,99356.03
2022-10-05T20:42:15.209Z,99351.25
2022-10-05T20:44:43.737Z,99358.06
2022-10-05T20:47:11.821Z,99362.03
2022-10-05T20:49:44.453Z,99355.66
2022-10-05T20:52:15.061Z,99351.22
2022-10-05T20:54:43.184Z,99367.56
2022-10-05T20:57:11.038Z,99366.31
2022-10-05T20:59:38.392Z,99366.72
2022-10-05T21:02:06.257Z,99366.34
2022-10-05T21:04:41.255Z,99369.44
2022-10-05T21:07:09.334Z,99379.38
2022-10-05T21:09:38.476Z,99387.69
2022-10-05T21:12:05.933Z,99378.53
2022-10-05T21:14:34.518Z,99384.19
2022-10-05T21:17:04.483Z,99387.28
2022-10-05T21:19:38.107Z,99387.38
2022-10-05T21:22:10.669Z,99397.56
2022-10-05T21:24:40.867Z,99388.34
2022-10-05T21:27:09.628Z,99394.38
2022-10-05T21:29:37.250Z,99398.53
2022-10-05T21:32:08.645Z,99402.59
2022-10-05T21:34:36.053Z,99397.25
2022-10-05T21:37:03.413Z,99404.47
2022-10-05T21:39:30.679Z,99402.41
2022-10-05T21:41:57.953Z,99407.25
2022-10-05T21:44:25.343Z,99411.59
2022-10-05T21:46:52.908Z,99409.72
2022-10-05T21:49:20.481Z,99411.16
2022-10-05T21:51:48.514Z,99410.50
2022-10-05T21:54:21.220Z,99408.78
2022-10-05T21:56:57.967Z,99400.78
2022-10-05T21:59:33.611Z,99417.09
2022-10-05T22:02:00.925Z,99407.81
2022-10-05T22:04:29.142Z,99416.63
2022-10-05T22:06:56.792Z,99428.66
2022-10-05T22:09:24.899Z,99427.53
2022-10-05T22:11:52.167Z,99423.94
2022-10-05T22:14:19.447Z,99428.69
2022-10-05T22:16:47.249Z,99439.91
2022-10-05T22:19:19.967Z,99437.38
2022-10-05T22:21:47.327Z,99441.41
2022-10-05T22:24:15.512Z,99435.22
2022-10-05T22:26:46.911Z,99443.84
2022-10-05T22:29:17.380Z,99437.09
2022-10-05T22:31:48.563Z,99435.59
2022-10-05T22:34:18.033Z,99438.84
2022-10-05T22:36:45.874Z,99447.47
2022-10-05T22:39:14.252Z,99445.41
2022-10-05T22:41:41.818Z,99434.72
2022-10-05T22:44:10.780Z,99429.63
2022-10-05T22:46:38.395Z,99436.06
2022-10-05T22:49:05.692Z,99437.13
2022-10-05T22:51:32.985Z,99435.78
2022-10-05T22:54:00.272Z,99443.03
2022-10-05T22:56:27.608Z,99446.16
2022-10-05T22:58:54.865Z,99444.22
2022-10-05T23:01:23.323Z,99442.78
2022-10-05T23:03:50.596Z,99447.25
2022-10-05T23:06:20.853Z,99447.09
2022-10-05T23:08:48.270Z,99453.00
2022-10-05T23:11:27.096Z,99444.66
2022-10-05T23:13:56.991Z,99452.09
2022-10-05T23:16:28.499Z,99459.56
2022-10-05T23:18:56.912Z,99456.28
2022-10-05T23:21:29.072Z,99466.91
2022-10-05T23:23:56.394Z,99460.38
2022-10-05T23:26:33.107Z,99471.56
2022-10-05T23:29:00.398Z,99470.31
2022-10-05T23:31:31.884Z,99474.50
2022-10-05T23:33:59.663Z,99484.13
2022-10-05T23:36:32.995Z,99462.63
2022-10-05T23:39:00.473Z,99484.88
2022-10-05T23:41:27.778Z,99468.81
2022-10-05T23:43:55.448Z,99471.06
2022-10-05T23:46:23.366Z,99476.41
2022-10-05T23:48:50.703Z,99483.22
2022-10-05T23:51:18.026Z,99482.69
2022-10-05T23:53:45.567Z,99480.63
2022-10-05T23:56:13.330Z,99475.97
2022-10-05T23:58:41.069Z,99485.13
